createdAt,value
2022-09-24T00:00:10.111Z,4.50
2022-09-24T00:02:36.821Z,4.87
2022-09-24T00:05:03.664Z,5.03
2022-09-24T00:07:30.357Z,4.80
2022-09-24T00:09:56.952Z,4.87
2022-09-24T00:12:23.900Z,4.70
2022-09-24T00:14:50.485Z,4.57
2022-09-24T00:17:20.364Z,4.70
2022-09-24T00:19:47.074Z,4.53
2022-09-24T00:22:13.771Z,4.83
2022-09-24T00:24:40.488Z,4.67
2022-09-24T00:27:07.870Z,4.90
2022-09-24T00:29:35.155Z,4.50
2022-09-24T00:32:02.880Z,4.43
2022-09-24T00:34:29.701Z,4.47
2022-09-24T00:36:56.440Z,4.63
2022-09-24T00:39:23.094Z,4.27
2022-09-24T00:41:49.968Z,4.70
2022-09-24T00:44:41.554Z,5.20
2022-09-24T00:47:17.396Z,5.10
2022-09-24T00:49:45.357Z,4.97
2022-09-24T00:52:11.948Z,4.70
2022-09-24T00:54:38.732Z,5.13
2022-09-24T00:57:05.423Z,4.50
2022-09-24T00:59:32.122Z,5.43
2022-09-24T01:01:58.889Z,5.10
2022-09-24T01:04:27.383Z,4.70
2022-09-24T01:06:56.063Z,5.03
2022-09-24T01:09:26.083Z,5.00
2022-09-24T01:12:31.065Z,5.03
2022-09-24T01:15:05.707Z,5.27
2022-09-24T01:17:35.389Z,5.80
2022-09-24T01:20:20.785Z,5.47
2022-09-24T01:23:02.780Z,5.40
2022-09-24T01:25:54.220Z,5.00
2022-09-24T01:28:36.025Z,5.10
2022-09-24T01:31:15.007Z,5.40
2022-09-24T01:33:43.817Z,5.40
2022-09-24T01:36:11.378Z,5.20
2022-09-24T01:38:42.590Z,5.63
2022-09-24T01:41:11.952Z,5.77
2022-09-24T01:43:38.998Z,5.60
2022-09-24T01:46:06.677Z,5.57
2022-09-24T01:48:36.610Z,6.00
2022-09-24T01:51:23.580Z,4.90
2022-09-24T01:54:02.105Z,5.07
2022-09-24T01:56:34.527Z,6.17
2022-09-24T01:59:10.331Z,5.37
2022-09-24T02:01:45.264Z,5.80
2022-09-24T02:04:16.477Z,5.57
2022-09-24T02:06:51.426Z,5.70
2022-09-24T02:09:36.532Z,5.27
2022-09-24T02:12:35.072Z,5.60
2022-09-24T02:15:26.784Z,5.60
2022-09-24T02:17:59.749Z,5.80
2022-09-24T02:20:29.590Z,5.50
2022-09-24T02:22:57.444Z,5.27
2022-09-24T02:25:38.727Z,5.00
2022-09-24T02:28:05.675Z,5.20
2022-09-24T02:30:39.905Z,4.90
2022-09-24T02:33:10.955Z,5.57
2022-09-24T02:35:37.919Z,5.23
2022-09-24T02:38:06.343Z,5.70
2022-09-24T02:40:33.385Z,5.40
2022-09-24T02:43:00.239Z,5.40
2022-09-24T02:45:27.558Z,5.80
2022-09-24T02:47:54.127Z,5.37
2022-09-24T02:50:20.823Z,5.60
2022-09-24T02:52:47.599Z,5.40
2022-09-24T02:55:14.285Z,6.10
2022-09-24T02:57:40.889Z,5.33
2022-09-24T03:00:08.421Z,5.67
2022-09-24T03:02:35.146Z,5.67
2022-09-24T03:05:02.054Z,5.57
2022-09-24T03:07:28.741Z,5.80
2022-09-24T03:09:55.386Z,6.00
2022-09-24T03:12:21.979Z,5.30
2022-09-24T03:14:48.762Z,5.30
2022-09-24T03:17:15.390Z,5.47
2022-09-24T03:19:42.167Z,5.83
2022-09-24T03:22:08.807Z,5.80
2022-09-24T03:24:35.466Z,5.20
2022-09-24T03:27:02.082Z,5.83
2022-09-24T03:29:28.906Z,5.40
2022-09-24T03:31:55.526Z,5.10
2022-09-24T03:34:22.209Z,4.90
2022-09-24T03:36:49.012Z,5.70
2022-09-24T03:39:15.747Z,5.87
2022-09-24T03:41:42.363Z,5.30
2022-09-24T03:44:09.137Z,5.50
2022-09-24T03:46:35.819Z,5.10
2022-09-24T03:49:02.558Z,5.20
2022-09-24T03:51:29.853Z,5.10
2022-09-24T03:53:56.635Z,5.47
2022-09-24T03:56:23.408Z,4.97
2022-09-24T03:58:50.155Z,5.27
2022-09-24T04:01:17.355Z,5.53
2022-09-24T04:03:44.110Z,4.93
2022-09-24T04:06:10.818Z,5.80
2022-09-24T04:08:37.552Z,5.87
2022-09-24T04:11:04.436Z,5.77
2022-09-24T04:13:31.355Z,5.40
2022-09-24T04:16:02.301Z,5.73
2022-09-24T04:18:29.110Z,5.60
2022-09-24T04:21:00.248Z,5.43
2022-09-24T04:23:27.676Z,5.43
2022-09-24T04:25:54.350Z,5.80
2022-09-24T04:28:21.149Z,5.40
2022-09-24T04:30:48.059Z,5.40
2022-09-24T04:33:14.934Z,5.13
2022-09-24T04:35:41.606Z,5.30
2022-09-24T04:38:08.302Z,5.70
2022-09-24T04:40:34.945Z,5.03
2022-09-24T04:43:02.867Z,5.13
2022-09-24T04:45:29.473Z,5.13
2022-09-24T04:47:56.255Z,4.80
2022-09-24T04:50:24.483Z,4.80
2022-09-24T04:52:53.469Z,5.70
2022-09-24T04:55:20.388Z,5.80
2022-09-24T04:57:47.994Z,5.03
2022-09-24T05:00:17.327Z,5.70
2022-09-24T05:02:44.732Z,5.20
2022-09-24T05:05:12.341Z,6.33
2022-09-24T05:07:39.719Z,5.07
2022-09-24T05:10:07.081Z,5.17
2022-09-24T05:12:33.847Z,5.93
2022-09-24T05:15:00.432Z,5.00
2022-09-24T05:17:27.181Z,5.43
2022-09-24T05:19:53.932Z,4.97
2022-09-24T05:22:20.661Z,4.80
2022-09-24T05:24:47.271Z,4.50
2022-09-24T05:27:15.078Z,4.87
2022-09-24T05:29:43.396Z,4.63
2022-09-24T05:32:12.377Z,5.30
2022-09-24T05:34:39.130Z,4.73
2022-09-24T05:37:05.800Z,4.70
2022-09-24T05:39:34.270Z,4.53
2022-09-24T05:42:01.615Z,5.10
2022-09-24T05:44:28.213Z,4.70
2022-09-24T05:46:55.035Z,4.50
2022-09-24T05:49:21.704Z,4.70
2022-09-24T05:51:51.849Z,5.07
2022-09-24T05:54:18.997Z,4.30
2022-09-24T05:56:46.122Z,4.70
2022-09-24T05:59:12.741Z,4.50
2022-09-24T06:01:39.637Z,4.80
2022-09-24T06:04:09.180Z,4.60
2022-09-24T06:06:36.216Z,4.83
2022-09-24T06:09:03.752Z,4.90
2022-09-24T06:11:37.668Z,4.83
2022-09-24T06:14:07.133Z,4.73
2022-09-24T06:16:33.913Z,4.60
2022-09-24T06:19:00.897Z,4.90
2022-09-24T06:21:27.922Z,4.90
2022-09-24T06:23:54.661Z,5.13
2022-09-24T06:26:21.834Z,4.80
2022-09-24T06:28:48.614Z,5.17
2022-09-24T06:31:15.277Z,4.80
2022-09-24T06:33:42.111Z,5.13
2022-09-24T06:36:09.143Z,5.60
2022-09-24T06:38:35.977Z,5.90
2022-09-24T06:41:04.936Z,5.93
2022-09-24T06:43:32.195Z,6.20
2022-09-24T06:46:00.044Z,6.67
2022-09-24T06:48:27.928Z,6.37
2022-09-24T06:50:54.536Z,7.10
2022-09-24T06:53:21.317Z,6.83
2022-09-24T06:55:49.858Z,6.20
2022-09-24T06:58:19.217Z,5.00
2022-09-24T07:00:51.870Z,4.80
2022-09-24T07:03:19.256Z,4.50
2022-09-24T07:05:45.994Z,4.30
2022-09-24T07:08:12.756Z,4.27
2022-09-24T07:10:46.094Z,4.30
2022-09-24T07:13:13.878Z,3.90
2022-09-24T07:15:41.867Z,4.10
2022-09-24T07:18:09.378Z,4.07
2022-09-24T07:20:36.132Z,4.40
2022-09-24T07:23:07.546Z,3.87
2022-09-24T07:25:34.777Z,4.33
2022-09-24T07:28:03.526Z,4.00
2022-09-24T07:30:31.874Z,4.33
2022-09-24T07:32:58.539Z,3.80
2022-09-24T07:35:27.259Z,4.00
2022-09-24T07:38:01.145Z,3.80
2022-09-24T07:40:29.381Z,4.13
2022-09-24T07:42:56.575Z,3.73
2022-09-24T07:45:25.080Z,3.53
2022-09-24T07:48:03.853Z,3.80
2022-09-24T07:50:37.605Z,3.90
2022-09-24T07:53:05.158Z,3.60
2022-09-24T07:55:31.889Z,3.50
2022-09-24T07:57:58.681Z,3.60
2022-09-24T08:00:25.774Z,3.70
2022-09-24T08:02:52.474Z,3.20
2022-09-24T08:05:19.880Z,3.95
2022-09-24T08:07:57.454Z,3.70
2022-09-24T08:10:26.253Z,3.78
2022-09-24T08:12:53.169Z,3.17
2022-09-24T08:15:21.028Z,3.38
2022-09-24T08:17:47.998Z,3.30
2022-09-24T08:20:16.217Z,3.40
2022-09-24T08:22:43.051Z,3.60
2022-09-24T08:25:10.016Z,3.58
2022-09-24T08:27:36.985Z,3.42
2022-09-24T08:30:05.147Z,3.40
2022-09-24T08:32:31.726Z,3.30
2022-09-24T08:34:58.377Z,3.40
2022-09-24T08:37:25.048Z,2.92
2022-09-24T08:39:51.637Z,3.08
2022-09-24T08:42:24.296Z,2.83
2022-09-24T08:44:52.497Z,3.08
2022-09-24T08:47:45.541Z,3.15
2022-09-24T08:50:18.680Z,3.13
2022-09-24T08:52:57.822Z,3.08
2022-09-24T08:55:41.062Z,2.72
2022-09-24T08:58:10.629Z,3.28
2022-09-24T09:01:02.199Z,3.20
2022-09-24T09:04:01.354Z,3.90
2022-09-24T09:06:47.318Z,2.90
2022-09-24T09:09:21.903Z,3.10
2022-09-24T09:12:00.859Z,3.30
2022-09-24T09:14:45.572Z,2.80
2022-09-24T09:17:18.305Z,3.10
2022-09-24T09:19:53.859Z,2.35
2022-09-24T09:22:24.909Z,2.60
2022-09-24T09:24:53.633Z,2.60
2022-09-24T09:27:20.943Z,2.65
2022-09-24T09:29:51.759Z,2.90
2022-09-24T09:32:42.890Z,2.75
2022-09-24T09:35:19.886Z,3.00
2022-09-24T09:37:52.833Z,3.00
2022-09-24T09:40:43.651Z,3.42
2022-09-24T09:43:13.137Z,3.78
2022-09-24T09:46:04.657Z,3.88
2022-09-24T09:48:44.012Z,3.80
2022-09-24T09:51:21.972Z,3.83
2022-09-24T09:53:57.713Z,3.58
2022-09-24T09:56:42.877Z,3.97
2022-09-24T09:59:12.550Z,3.90
2022-09-24T10:01:41.953Z,3.83
2022-09-24T10:04:27.245Z,3.85
2022-09-24T10:07:10.280Z,4.05
2022-09-24T10:09:38.912Z,3.80
2022-09-24T10:12:16.803Z,3.40
2022-09-24T10:14:44.427Z,3.20
2022-09-24T10:17:18.351Z,2.78
2022-09-24T10:19:46.064Z,3.00
2022-09-24T10:22:31.034Z,2.90
2022-09-24T10:24:59.795Z,2.70
2022-09-24T10:27:34.325Z,2.80
2022-09-24T10:30:04.841Z,2.38
2022-09-24T10:32:31.453Z,2.58
2022-09-24T10:34:59.082Z,2.55
2022-09-24T10:37:26.917Z,2.65
2022-09-24T10:40:01.909Z,2.33
2022-09-24T10:42:30.436Z,2.47
2022-09-24T10:45:00.697Z,2.72
2022-09-24T10:47:46.129Z,2.92
2022-09-24T10:50:23.643Z,2.60
2022-09-24T10:52:57.768Z,2.80
2022-09-24T10:55:44.955Z,2.88
2022-09-24T10:59:02.203Z,2.95
2022-09-24T11:02:16.419Z,2.55
2022-09-24T11:04:50.235Z,2.30
2022-09-24T11:07:39.399Z,2.30
2022-09-24T11:10:10.291Z,2.33
2022-09-24T11:12:56.551Z,2.50
2022-09-24T11:15:32.698Z,2.50
2022-09-24T11:18:36.994Z,2.40
2022-09-24T11:21:32.986Z,2.03
2022-09-24T11:24:35.181Z,2.10
2022-09-24T11:27:07.675Z,1.83
2022-09-24T11:29:50.264Z,1.70
2022-09-24T11:32:34.001Z,2.50
2022-09-24T11:35:06.960Z,1.70
2022-09-24T11:37:58.777Z,2.03
2022-09-24T11:40:25.694Z,1.90
2022-09-24T11:43:49.455Z,2.00
2022-09-24T11:46:45.342Z,2.22
2022-09-24T11:49:48.440Z,2.13
2022-09-24T11:52:24.371Z,2.40
2022-09-24T11:55:23.064Z,2.03
2022-09-24T11:57:49.944Z,1.80
2022-09-24T12:00:19.668Z,2.08
2022-09-24T12:03:08.049Z,2.30
2022-09-24T12:05:42.342Z,2.25
2022-09-24T12:08:27.587Z,2.10
2022-09-24T12:11:02.097Z,2.10
2022-09-24T12:13:45.226Z,2.13
2022-09-24T12:16:16.369Z,1.88
2022-09-24T12:18:54.472Z,1.92
2022-09-24T12:21:41.542Z,1.98
2022-09-24T12:24:19.352Z,2.10
2022-09-24T12:26:47.921Z,2.05
2022-09-24T12:29:40.896Z,2.05
2022-09-24T12:32:23.756Z,1.95
2022-09-24T12:35:02.767Z,1.95
2022-09-24T12:37:36.848Z,1.70
2022-09-24T12:40:12.675Z,2.25
2022-09-24T12:42:45.797Z,1.75
2022-09-24T12:45:21.554Z,1.77
2022-09-24T12:47:52.392Z,1.63
2022-09-24T12:50:25.934Z,1.92
2022-09-24T12:52:53.397Z,1.60
2022-09-24T12:55:24.837Z,1.83
2022-09-24T12:58:04.998Z,2.30
2022-09-24T13:00:45.747Z,2.22
2022-09-24T13:03:34.443Z,2.17
2022-09-24T13:06:02.054Z,2.13
2022-09-24T13:08:40.078Z,1.90
2022-09-24T13:11:25.172Z,2.15
2022-09-24T13:14:01.084Z,2.28
2022-09-24T13:16:28.317Z,1.92
2022-09-24T13:18:58.895Z,2.17
2022-09-24T13:21:28.363Z,1.83
2022-09-24T13:23:55.757Z,2.20
2022-09-24T13:26:29.323Z,2.22
2022-09-24T13:29:21.799Z,1.95
2022-09-24T13:31:53.916Z,2.10
2022-09-24T13:34:26.365Z,2.50
2022-09-24T13:37:11.040Z,2.25
2022-09-24T13:39:48.649Z,2.53
2022-09-24T13:42:21.349Z,2.22
2022-09-24T13:44:53.659Z,2.17
2022-09-24T13:47:33.813Z,2.22
2022-09-24T13:50:12.940Z,2.15
2022-09-24T13:52:44.668Z,2.40
2022-09-24T13:55:24.244Z,2.28
2022-09-24T13:57:51.290Z,2.10
2022-09-24T14:00:21.534Z,2.20
2022-09-24T14:03:20.771Z,2.03
2022-09-24T14:05:48.166Z,2.00
2022-09-24T14:08:18.396Z,2.22
2022-09-24T14:10:45.550Z,2.17
2022-09-24T14:13:26.193Z,2.25
2022-09-24T14:16:07.013Z,1.98
2022-09-24T14:18:33.872Z,1.92
2022-09-24T14:21:19.793Z,1.85
2022-09-24T14:23:48.111Z,2.50
2022-09-24T14:26:25.866Z,2.00
2022-09-24T14:28:53.721Z,1.77
2022-09-24T14:31:20.551Z,1.95
2022-09-24T14:33:47.545Z,1.98
2022-09-24T14:36:15.023Z,1.80
2022-09-24T14:38:53.550Z,1.80
2022-09-24T14:41:28.684Z,1.65
2022-09-24T14:44:01.388Z,1.88
2022-09-24T14:46:35.350Z,1.98
2022-09-24T14:49:26.790Z,1.60
2022-09-24T14:52:02.280Z,1.70
2022-09-24T14:54:45.397Z,1.90
2022-09-24T14:57:24.966Z,1.80
2022-09-24T14:59:52.634Z,1.77
2022-09-24T15:02:28.361Z,1.67
2022-09-24T15:05:05.507Z,2.00
2022-09-24T15:07:34.031Z,1.60
2022-09-24T15:10:03.198Z,8.32
2022-09-24T15:12:36.588Z,2.42
2022-09-24T15:15:15.849Z,2.10
2022-09-24T15:17:43.686Z,3.85
2022-09-24T15:20:12.108Z,2.60
2022-09-24T15:22:39.100Z,1.90
2022-09-24T15:25:07.445Z,2.83
2022-09-24T15:27:38.136Z,2.05
2022-09-24T15:30:07.331Z,2.00
2022-09-24T15:32:34.950Z,1.90
2022-09-24T15:35:02.497Z,1.60
2022-09-24T15:37:29.619Z,10.40
2022-09-24T15:39:59.266Z,2.60
2022-09-24T15:42:26.963Z,12.25
2022-09-24T15:44:54.091Z,3.60
2022-09-24T15:47:21.016Z,2.33
2022-09-24T15:49:47.948Z,2.00
2022-09-24T15:52:28.603Z,1.85
2022-09-24T15:54:57.825Z,1.80
2022-09-24T15:57:25.261Z,1.80
2022-09-24T15:59:52.765Z,3.47
2022-09-24T16:02:32.005Z,5.80
2022-09-24T16:05:03.618Z,2.90
2022-09-24T16:07:30.880Z,2.67
2022-09-24T16:09:57.488Z,2.40
2022-09-24T16:12:24.279Z,2.33
2022-09-24T16:14:50.975Z,1.92
2022-09-24T16:17:17.600Z,2.03
2022-09-24T16:19:44.526Z,2.85
2022-09-24T16:22:11.296Z,3.22
2022-09-24T16:24:37.973Z,2.50
2022-09-24T16:27:04.678Z,2.22
2022-09-24T16:29:31.262Z,2.70
2022-09-24T16:31:57.956Z,2.60
2022-09-24T16:34:24.633Z,2.55
2022-09-24T16:36:51.374Z,2.40
2022-09-24T16:39:17.996Z,2.15
2022-09-24T16:41:47.963Z,2.58
2022-09-24T16:44:14.724Z,2.50
2022-09-24T16:46:42.230Z,4.15
2022-09-24T16:49:09.053Z,2.65
2022-09-24T16:51:36.285Z,2.50
2022-09-24T16:54:02.866Z,3.17
2022-09-24T16:56:29.522Z,3.25
2022-09-24T16:58:56.452Z,4.30
2022-09-24T17:01:23.271Z,4.30
2022-09-24T17:03:58.274Z,4.75
2022-09-24T17:06:28.360Z,4.13
2022-09-24T17:08:55.717Z,4.05
2022-09-24T17:11:22.683Z,3.80
2022-09-24T17:13:49.321Z,3.60
2022-09-24T17:16:16.973Z,3.28
2022-09-24T17:18:43.655Z,3.88
2022-09-24T17:21:12.793Z,3.80
2022-09-24T17:23:39.692Z,3.50
2022-09-24T17:26:16.588Z,3.78
2022-09-24T17:28:45.728Z,4.10
2022-09-24T17:31:15.862Z,3.70
2022-09-24T17:33:44.009Z,4.18
2022-09-24T17:36:12.646Z,4.13
2022-09-24T17:38:39.483Z,4.43
2022-09-24T17:41:08.671Z,3.70
2022-09-24T17:43:36.679Z,3.83
2022-09-24T17:46:11.414Z,4.65
2022-09-24T17:48:43.049Z,5.65
2022-09-24T17:51:37.539Z,4.95
2022-09-24T17:54:07.366Z,5.63
2022-09-24T17:56:35.403Z,5.35
2022-09-24T17:59:02.363Z,4.43
2022-09-24T18:01:31.375Z,5.13
2022-09-24T18:03:59.025Z,4.82
2022-09-24T18:06:32.537Z,4.97
2022-09-24T18:09:00.902Z,4.60
2022-09-24T18:11:30.711Z,11.95
2022-09-24T18:13:59.488Z,9.25
2022-09-24T18:16:31.357Z,6.65
2022-09-24T18:18:59.932Z,5.65
2022-09-24T18:21:27.311Z,8.82
2022-09-24T18:23:55.704Z,9.52
2022-09-24T18:26:25.374Z,8.05
2022-09-24T18:28:57.725Z,7.25
2022-09-24T18:31:27.183Z,7.20
2022-09-24T18:33:55.280Z,6.80
2022-09-24T18:36:23.328Z,7.50
2022-09-24T18:38:50.123Z,6.10
2022-09-24T18:41:28.214Z,5.80
2022-09-24T18:43:56.371Z,5.70
2022-09-24T18:46:23.575Z,5.85
2022-09-24T18:48:53.033Z,5.88
2022-09-24T18:51:25.610Z,5.53
2022-09-24T18:53:54.215Z,5.82
2022-09-24T18:56:22.150Z,6.10
2022-09-24T18:58:48.846Z,6.00
2022-09-24T19:01:15.873Z,6.82
2022-09-24T19:03:42.889Z,7.05
2022-09-24T19:06:10.341Z,7.20
2022-09-24T19:08:37.304Z,6.80
2022-09-24T19:11:09.833Z,6.30
2022-09-24T19:13:38.366Z,6.05
2022-09-24T19:16:25.411Z,5.95
2022-09-24T19:18:53.634Z,7.28
2022-09-24T19:21:21.655Z,6.18
2022-09-24T19:23:50.050Z,5.78
2022-09-24T19:26:20.004Z,6.45
2022-09-24T19:28:48.137Z,6.43
2022-09-24T19:31:23.792Z,6.82
2022-09-24T19:33:52.318Z,6.50
2022-09-24T19:36:20.095Z,6.82
2022-09-24T19:38:47.172Z,6.10
2022-09-24T19:41:16.958Z,6.18
2022-09-24T19:43:44.223Z,6.88
2022-09-24T19:46:16.911Z,6.38
2022-09-24T19:48:49.067Z,7.70
2022-09-24T19:51:26.453Z,7.25
2022-09-24T19:53:58.173Z,7.30
2022-09-24T19:56:25.182Z,15.43
2022-09-24T19:58:57.710Z,13.10
2022-09-24T20:01:32.598Z,12.27
2022-09-24T20:04:08.103Z,9.82
2022-09-24T20:06:43.799Z,35.70
2022-09-24T20:09:17.914Z,18.60
2022-09-24T20:11:47.564Z,13.18
2022-09-24T20:14:19.163Z,10.23
2022-09-24T20:16:47.231Z,9.18
2022-09-24T20:20:33.857Z,8.80
2022-09-24T20:23:58.874Z,8.00
2022-09-24T20:29:20.688Z,7.72
2022-09-24T20:31:54.883Z,7.15
2022-09-24T20:34:30.913Z,7.07
2022-09-24T20:36:59.061Z,7.57
2022-09-24T20:39:26.691Z,8.02
2022-09-24T20:42:00.652Z,9.00
2022-09-24T20:44:27.978Z,8.35
2022-09-24T20:46:55.126Z,8.80
2022-09-24T20:49:23.060Z,8.68
2022-09-24T20:51:57.386Z,8.55
2022-09-24T20:54:25.919Z,8.00
2022-09-24T20:56:52.705Z,8.00
2022-09-24T20:59:20.001Z,7.88
2022-09-24T21:01:49.461Z,7.50
2022-09-24T21:04:19.741Z,7.20
2022-09-24T21:06:48.166Z,7.22
2022-09-24T21:09:55.386Z,7.25
2022-09-24T21:12:22.445Z,7.28
2022-09-24T21:14:48.987Z,6.85
2022-09-24T21:17:15.860Z,7.72
2022-09-24T21:19:43.234Z,7.90
2022-09-24T21:22:09.973Z,7.75
2022-09-24T21:24:37.564Z,6.93
2022-09-24T21:27:06.263Z,8.57
2022-09-24T21:29:33.928Z,7.55
2022-09-24T21:32:01.300Z,6.90
2022-09-24T21:34:28.073Z,6.93
2022-09-24T21:36:54.929Z,7.78
2022-09-24T21:39:25.279Z,7.45
2022-09-24T21:41:54.181Z,7.10
2022-09-24T21:44:23.077Z,7.00
2022-09-24T21:46:50.145Z,7.45
2022-09-24T21:49:18.266Z,7.65
2022-09-24T21:51:46.408Z,7.70
2022-09-24T21:54:15.930Z,7.05
2022-09-24T21:56:43.295Z,7.32
2022-09-24T21:59:10.294Z,6.90
2022-09-24T22:01:36.997Z,8.45
2022-09-24T22:04:03.690Z,7.75
2022-09-24T22:06:31.644Z,7.35
2022-09-24T22:09:01.569Z,9.50
2022-09-24T22:11:29.049Z,8.07
2022-09-24T22:13:56.203Z,10.50
2022-09-24T22:16:23.069Z,9.80
2022-09-24T22:18:50.239Z,10.82
2022-09-24T22:21:19.370Z,9.15
2022-09-24T22:23:49.287Z,9.38
2022-09-24T22:31:59.474Z,9.45
2022-09-24T22:34:27.247Z,9.95
2022-09-24T22:36:53.947Z,10.20
2022-09-24T22:39:21.127Z,10.77
2022-09-24T22:41:48.062Z,9.77
2022-09-24T22:44:15.570Z,11.38
2022-09-24T22:46:42.334Z,11.25
2022-09-24T22:49:10.166Z,10.43
2022-09-24T22:51:36.717Z,11.13
2022-09-24T22:54:03.620Z,12.25
2022-09-24T22:56:30.906Z,12.93
2022-09-24T22:59:00.061Z,10.52
2022-09-24T23:01:30.009Z,11.52
2022-09-24T23:03:58.067Z,11.75
2022-09-24T23:06:25.495Z,11.15
2022-09-24T23:08:54.831Z,10.40
2022-09-24T23:11:27.462Z,10.43
2022-09-24T23:13:58.779Z,9.55
2022-09-24T23:16:29.121Z,9.55
2022-09-24T23:18:58.600Z,9.70
2022-09-24T23:21:28.037Z,8.52
2022-09-24T23:23:56.763Z,8.68
2022-09-24T23:26:24.864Z,8.70
2022-09-24T23:28:53.149Z,9.15
2022-09-24T23:31:28.801Z,9.00
2022-09-24T23:33:57.698Z,8.88
2022-09-24T23:36:25.984Z,8.50
2022-09-24T23:38:52.694Z,8.50
2022-09-24T23:41:19.992Z,8.55
2022-09-24T23:43:46.832Z,9.30
2022-09-24T23:46:13.862Z,9.18
2022-09-24T23:48:40.796Z,8.35
2022-09-24T23:51:08.546Z,8.68
2022-09-24T23:53:36.057Z,8.60
2022-09-24T23:56:04.069Z,8.30
2022-09-24T23:58:31.381Z,7.53
